createdAt,value
2022-07-28T00:01:34.576Z,2.77
2022-07-28T00:04:02.047Z,2.80
2022-07-28T00:06:29.282Z,2.77
2022-07-28T00:08:56.510Z,2.83
2022-07-28T00:11:24.195Z,5.50
2022-07-28T00:13:51.457Z,6.77
2022-07-28T00:16:18.856Z,7.63
2022-07-28T00:18:46.180Z,4.67
2022-07-28T00:21:13.541Z,4.63
2022-07-28T00:23:40.849Z,3.30
2022-07-28T00:26:09.638Z,3.07
2022-07-28T00:28:38.117Z,3.00
2022-07-28T00:31:09.478Z,3.00
2022-07-28T00:33:39.878Z,2.80
2022-07-28T00:36:11.606Z,2.87
2022-07-28T00:38:40.783Z,2.57
2022-07-28T00:41:11.280Z,3.00
2022-07-28T00:43:48.676Z,2.50
2022-07-28T00:46:19.085Z,2.63
2022-07-28T00:48:51.384Z,2.43
2022-07-28T00:51:26.717Z,2.27
2022-07-28T00:53:55.687Z,2.40
2022-07-28T00:56:23.759Z,2.43
2022-07-28T00:58:51.286Z,2.03
2022-07-28T01:01:20.807Z,2.30
2022-07-28T01:03:59.176Z,2.47
2022-07-28T01:06:49.855Z,2.50
2022-07-28T01:09:46.167Z,2.63
2022-07-28T01:12:51.051Z,2.43
2022-07-28T01:15:48.982Z,2.30
2022-07-28T01:18:22.894Z,2.50
2022-07-28T01:21:10.399Z,2.30
2022-07-28T01:24:08.064Z,2.63
2022-07-28T01:27:09.176Z,2.30
2022-07-28T01:30:04.694Z,2.43
2022-07-28T01:32:50.181Z,2.30
2022-07-28T01:35:27.016Z,2.37
2022-07-28T01:38:01.201Z,2.60
2022-07-28T01:40:35.534Z,2.60
2022-07-28T01:43:09.444Z,2.33
2022-07-28T01:45:43.273Z,2.43
2022-07-28T01:48:12.246Z,2.50
2022-07-28T01:50:42.109Z,2.40
2022-07-28T01:53:13.629Z,2.57
2022-07-28T01:55:44.327Z,2.57
2022-07-28T01:58:17.111Z,2.63
2022-07-28T02:00:48.710Z,2.47
2022-07-28T02:03:20.637Z,2.30
2022-07-28T02:05:52.644Z,2.40
2022-07-28T02:08:23.451Z,2.60
2022-07-28T02:10:55.999Z,2.50
2022-07-28T02:13:23.184Z,2.20
2022-07-28T02:15:50.677Z,2.60
2022-07-28T02:18:18.061Z,2.70
2022-07-28T02:20:45.788Z,2.43
2022-07-28T02:23:14.631Z,2.80
2022-07-28T02:25:42.593Z,2.60
2022-07-28T02:28:13.328Z,2.30
2022-07-28T02:30:58.306Z,2.37
2022-07-28T02:33:58.895Z,2.30
2022-07-28T02:36:29.202Z,2.47
2022-07-28T02:39:08.509Z,2.70
2022-07-28T02:41:45.820Z,2.20
2022-07-28T02:44:22.310Z,2.50
2022-07-28T02:46:55.120Z,2.40
2022-07-28T02:49:32.461Z,2.90
2022-07-28T02:52:03.598Z,2.50
2022-07-28T02:54:32.358Z,2.33
2022-07-28T02:57:01.373Z,2.33
2022-07-28T02:59:29.789Z,2.50
2022-07-28T03:01:58.348Z,2.43
2022-07-28T03:04:26.498Z,2.23
2022-07-28T03:06:53.729Z,2.50
2022-07-28T03:09:20.862Z,3.00
2022-07-28T03:11:54.400Z,3.03
2022-07-28T03:14:21.638Z,2.60
2022-07-28T03:16:53.591Z,2.60
2022-07-28T03:19:22.585Z,2.60
2022-07-28T03:21:49.722Z,2.53
2022-07-28T03:24:19.735Z,2.67
2022-07-28T03:26:59.348Z,2.60
2022-07-28T03:29:31.244Z,3.43
2022-07-28T03:32:00.657Z,3.30
2022-07-28T03:34:29.435Z,3.07
2022-07-28T03:37:06.961Z,3.00
2022-07-28T03:39:42.717Z,3.63
2022-07-28T03:42:11.865Z,3.90
2022-07-28T03:44:39.734Z,4.03
2022-07-28T03:47:07.893Z,3.67
2022-07-28T03:49:35.312Z,3.17
2022-07-28T03:52:02.516Z,3.07
2022-07-28T03:54:29.850Z,3.00
2022-07-28T03:56:57.155Z,2.90
2022-07-28T03:59:24.352Z,2.90
2022-07-28T04:01:54.999Z,2.70
2022-07-28T04:04:23.595Z,3.20
2022-07-28T04:06:51.125Z,3.00
2022-07-28T04:09:21.881Z,2.93
2022-07-28T04:11:49.159Z,3.13
2022-07-28T04:14:17.134Z,3.30
2022-07-28T04:16:44.941Z,3.90
2022-07-28T04:19:13.401Z,3.87
2022-07-28T04:21:40.582Z,5.00
2022-07-28T04:24:10.591Z,4.20
2022-07-28T04:26:38.772Z,4.40
2022-07-28T04:29:09.130Z,4.40
2022-07-28T04:31:36.372Z,5.10
2022-07-28T04:34:03.626Z,4.67
2022-07-28T04:36:30.817Z,5.00
2022-07-28T04:38:58.041Z,5.57
2022-07-28T04:41:26.355Z,5.17
2022-07-28T04:43:53.559Z,5.40
2022-07-28T04:46:20.875Z,5.13
2022-07-28T04:48:48.221Z,5.33
2022-07-28T04:51:15.482Z,4.30
2022-07-28T04:53:43.610Z,4.23
2022-07-28T04:56:10.797Z,4.10
2022-07-28T04:58:37.975Z,4.27
2022-07-28T05:01:05.664Z,3.43
2022-07-28T05:03:36.152Z,3.97
2022-07-28T05:06:03.747Z,4.23
2022-07-28T05:08:30.901Z,3.87
2022-07-28T05:10:58.074Z,4.60
2022-07-28T05:13:30.347Z,4.20
2022-07-28T05:16:00.601Z,4.10
2022-07-28T05:18:27.883Z,4.23
2022-07-28T05:20:55.004Z,4.00
2022-07-28T05:23:22.206Z,4.20
2022-07-28T05:25:49.648Z,3.63
2022-07-28T05:28:16.892Z,4.13
2022-07-28T05:30:44.666Z,3.67
2022-07-28T05:33:12.045Z,3.60
2022-07-28T05:35:39.256Z,4.00
2022-07-28T05:38:10.754Z,3.80
2022-07-28T05:40:38.483Z,3.67
2022-07-28T05:43:05.709Z,4.17
2022-07-28T05:45:33.019Z,4.10
2022-07-28T05:48:00.217Z,4.00
2022-07-28T05:50:27.362Z,3.67
2022-07-28T05:52:54.648Z,3.77
2022-07-28T05:55:22.075Z,4.23
2022-07-28T05:57:49.306Z,4.50
2022-07-28T06:00:21.191Z,3.83
2022-07-28T06:02:50.173Z,3.97
2022-07-28T06:05:21.475Z,4.33
2022-07-28T06:07:51.370Z,4.07
2022-07-28T06:10:22.714Z,4.30
2022-07-28T06:12:55.725Z,4.10
2022-07-28T06:15:25.881Z,4.60
2022-07-28T06:17:55.349Z,4.33
2022-07-28T06:20:24.927Z,4.40
2022-07-28T06:22:59.044Z,4.50
2022-07-28T06:25:29.813Z,4.50
2022-07-28T06:28:06.523Z,4.30
2022-07-28T06:30:33.705Z,4.20
2022-07-28T06:33:02.898Z,3.53
2022-07-28T06:35:30.144Z,4.10
2022-07-28T06:37:57.400Z,4.07
2022-07-28T06:40:25.257Z,4.10
2022-07-28T06:42:52.631Z,4.37
2022-07-28T06:45:21.535Z,4.23
2022-07-28T06:47:53.526Z,4.17
2022-07-28T06:50:25.765Z,3.97
2022-07-28T06:52:58.965Z,3.83
2022-07-28T06:55:34.552Z,3.80
2022-07-28T06:58:04.756Z,3.87
2022-07-28T07:00:32.405Z,3.83
2022-07-28T07:03:00.829Z,3.63
2022-07-28T07:05:29.231Z,3.60
2022-07-28T07:07:56.439Z,3.90
2022-07-28T07:10:24.013Z,3.60
2022-07-28T07:12:51.349Z,3.73
2022-07-28T07:15:18.543Z,3.90
2022-07-28T07:17:46.157Z,3.70
2022-07-28T07:20:13.552Z,3.70
2022-07-28T07:22:46.397Z,4.00
2022-07-28T07:25:17.987Z,3.67
2022-07-28T07:27:46.399Z,3.37
2022-07-28T07:30:15.893Z,4.20
2022-07-28T07:32:43.979Z,3.73
2022-07-28T07:35:11.847Z,3.67
2022-07-28T07:37:39.499Z,3.70
2022-07-28T07:40:08.279Z,3.83
2022-07-28T07:42:35.738Z,3.90
2022-07-28T07:45:03.704Z,3.70
2022-07-28T07:47:31.027Z,4.00
2022-07-28T07:49:58.253Z,4.00
2022-07-28T07:52:25.484Z,4.03
2022-07-28T07:54:52.675Z,4.07
2022-07-28T07:57:19.883Z,4.43
2022-07-28T07:59:47.060Z,4.30
2022-07-28T08:02:14.510Z,3.80
2022-07-28T08:04:41.788Z,4.00
2022-07-28T08:07:10.009Z,4.00
2022-07-28T08:09:37.224Z,3.70
2022-07-28T08:12:05.128Z,4.03
2022-07-28T08:14:32.375Z,3.60
2022-07-28T08:16:59.780Z,3.90
2022-07-28T08:19:26.996Z,3.83
2022-07-28T08:21:54.488Z,3.65
2022-07-28T08:24:27.803Z,3.80
2022-07-28T08:27:02.929Z,3.80
2022-07-28T08:29:30.526Z,4.00
2022-07-28T08:31:57.985Z,3.93
2022-07-28T08:34:31.419Z,3.92
2022-07-28T08:37:04.443Z,3.85
2022-07-28T08:39:33.682Z,4.40
2022-07-28T08:42:20.480Z,4.47
2022-07-28T08:45:03.784Z,4.55
2022-07-28T08:47:45.667Z,4.10
2022-07-28T08:50:13.873Z,4.37
2022-07-28T08:52:45.351Z,3.83
2022-07-28T08:55:19.456Z,4.57
2022-07-28T08:57:47.730Z,4.10
2022-07-28T09:00:15.314Z,4.20
2022-07-28T09:02:44.852Z,4.13
2022-07-28T09:05:12.577Z,4.83
2022-07-28T09:07:41.684Z,4.70
2022-07-28T09:10:11.593Z,4.43
2022-07-28T09:12:39.770Z,4.07
2022-07-28T09:15:09.529Z,4.27
2022-07-28T09:17:37.385Z,4.60
2022-07-28T09:20:10.799Z,3.97
2022-07-28T09:23:03.966Z,4.20
2022-07-28T09:25:32.811Z,4.00
2022-07-28T09:28:10.946Z,3.80
2022-07-28T09:30:48.302Z,3.78
2022-07-28T09:33:42.340Z,4.05
2022-07-28T09:36:15.716Z,3.17
2022-07-28T09:38:43.134Z,3.38
2022-07-28T09:41:11.477Z,2.90
2022-07-28T09:43:45.026Z,2.90
2022-07-28T09:46:15.595Z,3.20
2022-07-28T09:48:55.811Z,3.00
2022-07-28T09:51:33.057Z,2.70
2022-07-28T09:54:16.905Z,2.70
2022-07-28T09:56:46.153Z,2.92
2022-07-28T09:59:14.987Z,2.67
2022-07-28T10:02:01.918Z,3.40
2022-07-28T10:04:39.840Z,2.75
2022-07-28T10:07:14.300Z,3.03
2022-07-28T10:09:42.233Z,3.10
2022-07-28T10:12:17.166Z,3.50
2022-07-28T10:14:44.804Z,3.50
2022-07-28T10:17:31.662Z,3.70
2022-07-28T10:20:01.869Z,3.30
2022-07-28T10:22:43.291Z,3.15
2022-07-28T10:25:11.802Z,3.00
2022-07-28T10:27:42.957Z,3.22
2022-07-28T10:30:12.255Z,3.85
2022-07-28T10:32:45.739Z,3.10
2022-07-28T10:35:16.226Z,2.90
2022-07-28T10:38:07.804Z,3.33
2022-07-28T10:40:42.108Z,3.20
2022-07-28T10:43:09.536Z,3.30
2022-07-28T10:46:03.247Z,3.50
2022-07-28T10:48:27.169Z,3.45
2022-07-28T10:50:56.796Z,3.38
2022-07-28T10:53:56.902Z,3.38
2022-07-28T10:56:49.968Z,3.40
2022-07-28T10:59:58.814Z,3.30
2022-07-28T11:02:46.135Z,2.83
2022-07-28T11:05:34.081Z,2.80
2022-07-28T11:08:27.713Z,2.95
2022-07-28T11:11:05.564Z,3.30
2022-07-28T11:13:37.061Z,3.28
2022-07-28T11:16:14.594Z,3.17
2022-07-28T11:19:40.515Z,3.40
2022-07-28T11:22:15.213Z,3.40
2022-07-28T11:24:57.939Z,3.10
2022-07-28T11:27:41.064Z,2.90
2022-07-28T11:30:18.670Z,2.90
2022-07-28T11:33:07.632Z,3.00
2022-07-28T11:35:41.026Z,2.67
2022-07-28T11:38:14.502Z,3.08
2022-07-28T11:40:53.794Z,2.42
2022-07-28T11:43:35.777Z,2.78
2022-07-28T11:46:10.237Z,2.55
2022-07-28T11:48:42.038Z,2.58
2022-07-28T11:51:11.658Z,2.55
2022-07-28T11:53:53.618Z,2.70
2022-07-28T11:56:29.437Z,2.70
2022-07-28T11:59:06.298Z,2.60
2022-07-28T12:01:36.867Z,2.88
2022-07-28T12:04:12.307Z,2.83
2022-07-28T12:06:42.401Z,2.80
2022-07-28T12:09:11.502Z,2.55
2022-07-28T12:11:41.227Z,3.05
2022-07-28T12:14:11.087Z,2.92
2022-07-28T12:16:43.156Z,2.80
2022-07-28T12:19:14.626Z,2.75
2022-07-28T12:21:49.306Z,2.83
2022-07-28T12:24:30.609Z,2.90
2022-07-28T12:27:00.260Z,2.85
2022-07-28T12:29:33.536Z,3.17
2022-07-28T12:32:08.092Z,2.75
2022-07-28T12:34:36.894Z,2.60
2022-07-28T12:37:07.024Z,2.80
2022-07-28T12:39:34.932Z,2.70
2022-07-28T12:42:05.859Z,2.78
2022-07-28T12:44:45.758Z,3.00
2022-07-28T12:47:15.541Z,2.95
2022-07-28T12:49:45.041Z,2.85
2022-07-28T12:52:24.389Z,2.80
2022-07-28T12:54:55.743Z,3.25
2022-07-28T12:57:49.148Z,3.00
2022-07-28T13:00:20.207Z,3.30
2022-07-28T13:02:49.450Z,2.70
2022-07-28T13:05:43.030Z,3.20
2022-07-28T13:08:10.414Z,2.90
2022-07-28T13:10:47.320Z,3.88
2022-07-28T13:13:15.850Z,3.40
2022-07-28T13:15:43.345Z,3.88
2022-07-28T13:18:11.531Z,4.00
2022-07-28T13:20:51.864Z,4.18
2022-07-28T13:23:19.012Z,4.05
2022-07-28T13:25:46.316Z,4.00
2022-07-28T13:28:25.390Z,4.13
2022-07-28T13:30:53.269Z,4.55
2022-07-28T13:33:20.866Z,4.15
2022-07-28T13:35:49.192Z,4.13
2022-07-28T13:38:17.539Z,3.92
2022-07-28T13:40:45.866Z,4.13
2022-07-28T13:43:13.333Z,4.25
2022-07-28T13:45:41.051Z,4.35
2022-07-28T13:48:10.758Z,4.40
2022-07-28T13:50:38.006Z,4.13
2022-07-28T13:53:05.153Z,4.55
2022-07-28T13:55:33.570Z,4.25
2022-07-28T13:58:03.333Z,4.38
2022-07-28T14:00:34.095Z,4.60
2022-07-28T14:03:01.383Z,4.90
2022-07-28T14:05:32.139Z,4.50
2022-07-28T14:08:00.060Z,5.35
2022-07-28T14:10:27.685Z,5.53
2022-07-28T14:12:55.055Z,4.30
2022-07-28T14:15:22.368Z,5.20
2022-07-28T14:17:49.563Z,4.70
2022-07-28T14:20:17.110Z,4.95
2022-07-28T14:22:46.329Z,5.07
2022-07-28T14:25:20.983Z,5.10
2022-07-28T14:27:51.492Z,4.40
2022-07-28T14:30:21.221Z,4.32
2022-07-28T14:32:49.226Z,4.40
2022-07-28T14:35:16.749Z,4.93
2022-07-28T14:38:28.493Z,5.15
2022-07-28T14:40:31.826Z,4.57
2022-07-28T14:43:00.098Z,4.50
2022-07-28T14:45:29.572Z,4.50
2022-07-28T14:47:58.175Z,4.20
2022-07-28T14:50:25.918Z,3.80
2022-07-28T14:52:53.440Z,3.50
2022-07-28T14:55:21.219Z,3.53
2022-07-28T14:57:54.709Z,3.65
2022-07-28T15:00:25.135Z,3.55
2022-07-28T15:02:56.490Z,3.90
2022-07-28T15:05:23.833Z,4.25
2022-07-28T15:07:51.484Z,4.00
2022-07-28T15:10:20.277Z,3.83
2022-07-28T15:12:47.577Z,4.50
2022-07-28T15:15:23.849Z,3.90
2022-07-28T15:18:09.847Z,4.10
2022-07-28T15:20:38.805Z,4.25
2022-07-28T15:23:07.099Z,3.92
2022-07-28T15:29:43.832Z,3.10
2022-07-28T15:32:13.114Z,3.55
2022-07-28T15:34:43.528Z,3.72
2022-07-28T15:37:10.768Z,3.70
2022-07-28T15:39:40.673Z,3.30
2022-07-28T15:42:11.979Z,4.93
2022-07-28T15:44:39.123Z,8.52
2022-07-28T15:47:06.754Z,4.60
2022-07-28T15:49:36.589Z,3.42
2022-07-28T15:52:03.870Z,3.40
2022-07-28T15:54:31.250Z,3.60
2022-07-28T15:56:58.444Z,3.78
2022-07-28T15:59:25.742Z,3.60
2022-07-28T16:01:53.349Z,4.22
2022-07-28T16:04:20.597Z,4.03
2022-07-28T16:06:47.864Z,4.05
2022-07-28T16:09:15.779Z,3.78
2022-07-28T16:11:43.441Z,3.58
2022-07-28T16:14:11.029Z,3.88
2022-07-28T16:16:38.835Z,3.97
2022-07-28T16:19:20.143Z,4.32
2022-07-28T16:21:56.035Z,4.20
2022-07-28T16:24:23.279Z,4.78
2022-07-28T16:26:50.621Z,3.80
2022-07-28T16:29:17.887Z,4.20
2022-07-28T16:31:45.510Z,4.47
2022-07-28T16:34:13.373Z,4.03
2022-07-28T16:36:40.816Z,4.45
2022-07-28T16:39:08.755Z,4.72
2022-07-28T16:41:47.502Z,5.13
2022-07-28T16:44:16.110Z,4.22
2022-07-28T16:46:43.703Z,4.75
2022-07-28T16:49:11.057Z,4.00
2022-07-28T16:51:38.233Z,4.38
2022-07-28T16:54:05.495Z,4.38
2022-07-28T16:56:32.724Z,4.40
2022-07-28T16:58:59.935Z,4.85
2022-07-28T17:01:27.341Z,4.57
2022-07-28T17:03:54.727Z,4.72
2022-07-28T17:06:22.016Z,4.53
2022-07-28T17:08:49.182Z,4.57
2022-07-28T17:11:17.064Z,4.28
2022-07-28T17:13:45.509Z,5.43
2022-07-28T17:16:13.732Z,5.40
2022-07-28T17:18:41.139Z,4.35
2022-07-28T17:21:08.445Z,4.47
2022-07-28T17:23:36.727Z,4.60
2022-07-28T17:27:04.937Z,4.85
2022-07-28T17:28:52.757Z,4.50
2022-07-28T17:31:20.062Z,4.43
2022-07-28T17:33:47.443Z,4.30
2022-07-28T17:36:14.802Z,4.22
2022-07-28T17:38:42.131Z,4.10
2022-07-28T17:41:09.696Z,4.68
2022-07-28T17:43:38.964Z,4.40
2022-07-28T17:46:10.413Z,4.22
2022-07-28T17:48:38.641Z,4.22
2022-07-28T17:51:08.099Z,4.72
2022-07-28T17:53:39.044Z,4.40
2022-07-28T17:56:09.038Z,4.23
2022-07-28T17:58:37.602Z,4.50
2022-07-28T18:01:10.223Z,4.13
2022-07-28T18:03:59.835Z,4.05
2022-07-28T18:06:35.567Z,4.97
2022-07-28T18:09:08.239Z,4.65
2022-07-28T18:11:57.165Z,4.22
2022-07-28T18:14:30.322Z,4.20
2022-07-28T18:16:59.277Z,4.15
2022-07-28T18:19:28.357Z,4.13
2022-07-28T18:21:56.370Z,4.80
2022-07-28T18:24:23.628Z,4.85
2022-07-28T18:26:51.725Z,5.13
2022-07-28T18:29:20.345Z,4.83
2022-07-28T18:31:52.737Z,4.75
2022-07-28T18:34:23.308Z,5.10
2022-07-28T18:36:53.654Z,5.15
2022-07-28T18:39:21.549Z,4.72
2022-07-28T18:41:48.775Z,4.90
2022-07-28T18:44:17.491Z,4.70
2022-07-28T18:46:45.737Z,5.17
2022-07-28T18:49:13.531Z,4.82
2022-07-28T18:51:45.538Z,4.90
2022-07-28T18:54:24.758Z,5.00
2022-07-28T18:56:56.128Z,4.97
2022-07-28T18:59:23.865Z,5.22
2022-07-28T19:01:51.342Z,5.32
2022-07-28T19:04:19.319Z,6.20
2022-07-28T19:06:46.749Z,5.07
2022-07-28T19:09:14.335Z,5.03
2022-07-28T19:11:45.965Z,5.33
2022-07-28T19:14:16.172Z,5.17
2022-07-28T19:16:44.127Z,5.40
2022-07-28T19:19:11.461Z,5.20
2022-07-28T19:21:38.657Z,4.70
2022-07-28T19:24:13.425Z,5.30
2022-07-28T19:26:42.599Z,5.28
2022-07-28T19:29:09.878Z,5.00
2022-07-28T19:31:37.059Z,5.10
2022-07-28T19:34:04.376Z,4.93
2022-07-28T19:36:31.568Z,5.23
2022-07-28T19:38:58.928Z,5.27
2022-07-28T19:41:26.097Z,5.00
2022-07-28T19:43:53.329Z,5.30
2022-07-28T19:46:20.675Z,5.13
2022-07-28T19:48:47.877Z,5.10
2022-07-28T19:51:15.083Z,7.43
2022-07-28T19:53:42.350Z,6.20
2022-07-28T19:56:11.909Z,6.87
2022-07-28T19:58:39.131Z,6.97
2022-07-28T20:01:06.772Z,7.13
2022-07-28T20:04:02.613Z,6.53
2022-07-28T20:06:24.674Z,6.37
2022-07-28T20:08:53.854Z,5.97
2022-07-28T20:11:21.128Z,5.57
2022-07-28T20:13:48.329Z,5.10
2022-07-28T20:16:16.283Z,4.60
2022-07-28T20:18:43.562Z,4.57
2022-07-28T20:21:10.703Z,4.80
2022-07-28T20:23:38.144Z,4.50
2022-07-28T20:26:05.346Z,4.37
2022-07-28T20:28:32.591Z,4.50
2022-07-28T20:31:00.466Z,4.53
2022-07-28T20:33:27.749Z,4.63
2022-07-28T20:35:54.956Z,4.30
2022-07-28T20:38:22.253Z,4.40
2022-07-28T20:40:50.887Z,3.83
2022-07-28T20:43:18.094Z,3.77
2022-07-28T20:45:46.244Z,4.03
2022-07-28T20:48:14.555Z,3.83
2022-07-28T20:50:42.839Z,3.97
2022-07-28T20:53:10.572Z,3.90
2022-07-28T20:55:37.915Z,4.07
2022-07-28T20:58:05.855Z,3.67
2022-07-28T21:00:33.607Z,3.63
2022-07-28T21:03:00.829Z,3.97
2022-07-28T21:05:34.704Z,4.00
2022-07-28T21:08:09.141Z,4.07
2022-07-28T21:10:43.531Z,4.30
2022-07-28T21:13:10.929Z,3.87
2022-07-28T21:15:38.236Z,4.13
2022-07-28T21:18:05.580Z,4.43
2022-07-28T21:20:32.821Z,4.60
2022-07-28T21:23:00.035Z,4.20
2022-07-28T21:25:29.800Z,4.60
2022-07-28T21:27:57.008Z,4.20
2022-07-28T21:30:27.687Z,4.00
2022-07-28T21:32:55.633Z,4.10
2022-07-28T21:35:22.942Z,4.57
2022-07-28T21:37:50.309Z,4.30
2022-07-28T21:40:17.469Z,4.07
2022-07-28T21:42:46.610Z,4.60
2022-07-28T21:45:13.877Z,5.40
2022-07-28T21:47:41.488Z,6.17
2022-07-28T21:50:09.509Z,5.50
2022-07-28T21:52:38.008Z,5.40
2022-07-28T21:55:07.942Z,5.23
2022-07-28T21:57:36.253Z,4.17
2022-07-28T22:00:09.335Z,4.27
2022-07-28T22:02:36.572Z,3.83
2022-07-28T22:05:05.347Z,4.27
2022-07-28T22:07:32.600Z,3.97
2022-07-28T22:09:59.713Z,3.47
2022-07-28T22:12:26.925Z,3.67
2022-07-28T22:14:54.104Z,4.37
2022-07-28T22:17:21.360Z,4.03
2022-07-28T22:19:48.617Z,4.77
2022-07-28T22:22:15.861Z,6.03
2022-07-28T22:24:43.017Z,4.50
2022-07-28T22:27:10.267Z,4.10
2022-07-28T22:29:37.551Z,4.30
2022-07-28T22:32:05.262Z,4.03
2022-07-28T22:34:32.454Z,3.70
2022-07-28T22:36:59.855Z,3.70
2022-07-28T22:39:27.107Z,4.10
2022-07-28T22:41:54.259Z,3.70
2022-07-28T22:44:21.429Z,4.00
2022-07-28T22:46:48.657Z,4.00
2022-07-28T22:49:16.163Z,3.90
2022-07-28T22:51:46.461Z,3.90
2022-07-28T22:54:16.721Z,3.97
2022-07-28T22:56:44.690Z,4.73
2022-07-28T22:59:12.351Z,3.90
2022-07-28T23:01:43.034Z,4.27
2022-07-28T23:04:10.306Z,3.90
2022-07-28T23:06:37.576Z,4.07
2022-07-28T23:09:05.770Z,3.97
2022-07-28T23:11:33.115Z,3.90
2022-07-28T23:14:00.422Z,3.87
2022-07-28T23:16:27.685Z,4.20
2022-07-28T23:18:55.492Z,3.50
2022-07-28T23:21:23.166Z,3.97
2022-07-28T23:23:50.501Z,3.77
2022-07-28T23:26:17.803Z,4.10
2022-07-28T23:28:45.044Z,4.60
2022-07-28T23:31:12.343Z,4.30
2022-07-28T23:33:54.103Z,4.87
2022-07-28T23:36:26.781Z,4.33
2022-07-28T23:38:57.492Z,4.87
2022-07-28T23:41:25.214Z,3.90
2022-07-28T23:43:53.446Z,4.00
2022-07-28T23:46:21.111Z,4.00
2022-07-28T23:48:50.035Z,3.90
2022-07-28T23:51:17.637Z,3.80
2022-07-28T23:53:45.024Z,3.90
2022-07-28T23:56:14.358Z,4.10
2022-07-28T23:58:42.340Z,4.57
